sensor_id;sensor_type;location;lat;lon;timestamp;P1;durP1;ratioP1;P2;durP2;ratioP2
62092;SDS011;59819;52.976;6.846;2022-08-01T00:00:22;16.20;;;9.63;;
62092;SDS011;59819;52.976;6.846;2022-08-01T00:02:48;18.50;;;10.13;;
62092;SDS011;59819;52.976;6.846;2022-08-01T00:05:14;16.98;;;9.70;;
62092;SDS011;59819;52.976;6.846;2022-08-01T00:07:40;14.55;;;9.68;;
62092;SDS011;59819;52.976;6.846;2022-08-01T00:10:14;14.52;;;9.48;;
62092;SDS011;59819;52.976;6.846;2022-08-01T00:12:40;15.63;;;9.75;;
62092;SDS011;59819;52.976;6.846;2022-08-01T00:15:07;16.77;;;9.98;;
62092;SDS011;59819;52.976;6.846;2022-08-01T00:17:34;15.23;;;9.43;;
62092;SDS011;59819;52.976;6.846;2022-08-01T00:20:00;14.45;;;8.82;;
62092;SDS011;59819;52.976;6.846;2022-08-01T00:22:28;15.52;;;9.57;;
62092;SDS011;59819;52.976;6.846;2022-08-01T00:24:54;15.50;;;9.25;;
62092;SDS011;59819;52.976;6.846;2022-08-01T00:27:20;18.73;;;10.52;;
62092;SDS011;59819;52.976;6.846;2022-08-01T00:29:46;17.13;;;10.10;;
62092;SDS011;59819;52.976;6.846;2022-08-01T00:32:12;18.23;;;10.63;;
62092;SDS011;59819;52.976;6.846;2022-08-01T00:34:38;16.35;;;9.65;;
62092;SDS011;59819;52.976;6.846;2022-08-01T00:37:04;17.38;;;10.65;;
62092;SDS011;59819;52.976;6.846;2022-08-01T00:39:30;18.27;;;10.15;;
62092;SDS011;59819;52.976;6.846;2022-08-01T00:41:58;18.60;;;10.55;;
62092;SDS011;59819;52.976;6.846;2022-08-01T00:44:24;19.75;;;10.52;;
62092;SDS011;59819;52.976;6.846;2022-08-01T00:46:50;21.50;;;10.95;;
62092;SDS011;59819;52.976;6.846;2022-08-01T00:49:16;22.92;;;11.25;;
62092;SDS011;59819;52.976;6.846;2022-08-01T00:51:42;25.80;;;12.07;;
62092;SDS011;59819;52.976;6.846;2022-08-01T00:54:08;22.33;;;11.52;;
62092;SDS011;59819;52.976;6.846;2022-08-01T00:56:34;23.10;;;12.23;;
62092;SDS011;59819;52.976;6.846;2022-08-01T00:59:00;23.50;;;12.20;;
62092;SDS011;59819;52.976;6.846;2022-08-01T01:01:26;23.63;;;12.55;;
62092;SDS011;59819;52.976;6.846;2022-08-01T01:03:52;25.67;;;12.68;;
62092;SDS011;59819;52.976;6.846;2022-08-01T01:06:31;25.73;;;12.85;;
62092;SDS011;59819;52.976;6.846;2022-08-01T01:11:54;27.55;;;13.20;;
62092;SDS011;59819;52.976;6.846;2022-08-01T01:14:27;30.55;;;13.32;;
62092;SDS011;59819;52.976;6.846;2022-08-01T01:16:56;26.17;;;14.05;;
62092;SDS011;59819;52.976;6.846;2022-08-01T01:19:24;25.88;;;13.52;;
62092;SDS011;59819;52.976;6.846;2022-08-01T01:24:37;30.98;;;15.18;;
62092;SDS011;59819;52.976;6.846;2022-08-01T01:27:09;37.70;;;15.35;;
62092;SDS011;59819;52.976;6.846;2022-08-01T01:29:38;29.45;;;14.77;;
62092;SDS011;59819;52.976;6.846;2022-08-01T01:32:19;29.98;;;15.13;;
62092;SDS011;59819;52.976;6.846;2022-08-01T01:34:49;31.73;;;15.48;;
62092;SDS011;59819;52.976;6.846;2022-08-01T01:37:17;34.58;;;15.27;;
62092;SDS011;59819;52.976;6.846;2022-08-01T01:39:44;31.67;;;15.23;;
62092;SDS011;59819;52.976;6.846;2022-08-01T01:42:12;25.70;;;13.55;;
62092;SDS011;59819;52.976;6.846;2022-08-01T01:44:39;26.85;;;13.65;;
62092;SDS011;59819;52.976;6.846;2022-08-01T01:47:05;24.08;;;12.77;;
62092;SDS011;59819;52.976;6.846;2022-08-01T01:49:32;28.50;;;13.38;;
62092;SDS011;59819;52.976;6.846;2022-08-01T01:51:59;22.60;;;12.57;;
62092;SDS011;59819;52.976;6.846;2022-08-01T01:54:36;21.42;;;12.73;;
62092;SDS011;59819;52.976;6.846;2022-08-01T01:57:03;19.95;;;12.20;;
62092;SDS011;59819;52.976;6.846;2022-08-01T01:59:30;20.08;;;11.55;;
62092;SDS011;59819;52.976;6.846;2022-08-01T02:01:58;18.77;;;11.10;;
62092;SDS011;59819;52.976;6.846;2022-08-01T02:04:25;14.18;;;10.02;;
62092;SDS011;59819;52.976;6.846;2022-08-01T02:06:53;16.40;;;11.02;;
62092;SDS011;59819;52.976;6.846;2022-08-01T02:09:20;16.58;;;10.73;;
62092;SDS011;59819;52.976;6.846;2022-08-01T02:11:48;15.32;;;10.77;;
62092;SDS011;59819;52.976;6.846;2022-08-01T02:14:15;19.13;;;11.13;;
62092;SDS011;59819;52.976;6.846;2022-08-01T02:16:42;18.77;;;10.18;;
62092;SDS011;59819;52.976;6.846;2022-08-01T02:19:09;14.13;;;9.13;;
62092;SDS011;59819;52.976;6.846;2022-08-01T02:21:40;13.43;;;10.45;;
62092;SDS011;59819;52.976;6.846;2022-08-01T02:24:13;15.63;;;9.40;;
62092;SDS011;59819;52.976;6.846;2022-08-01T02:26:41;15.68;;;9.77;;
62092;SDS011;59819;52.976;6.846;2022-08-01T02:29:09;15.75;;;8.63;;
62092;SDS011;59819;52.976;6.846;2022-08-01T02:31:38;11.15;;;8.27;;
62092;SDS011;59819;52.976;6.846;2022-08-01T02:34:05;11.02;;;7.65;;
62092;SDS011;59819;52.976;6.846;2022-08-01T02:36:33;10.98;;;7.53;;
62092;SDS011;59819;52.976;6.846;2022-08-01T02:39:01;13.00;;;7.13;;
62092;SDS011;59819;52.976;6.846;2022-08-01T02:41:28;10.13;;;6.35;;
62092;SDS011;59819;52.976;6.846;2022-08-01T02:43:58;13.75;;;6.20;;
62092;SDS011;59819;52.976;6.846;2022-08-01T02:46:31;9.70;;;5.95;;
62092;SDS011;59819;52.976;6.846;2022-08-01T02:49:00;8.98;;;5.35;;
62092;SDS011;59819;52.976;6.846;2022-08-01T02:51:26;9.30;;;5.60;;
62092;SDS011;59819;52.976;6.846;2022-08-01T02:53:53;7.78;;;4.82;;
62092;SDS011;59819;52.976;6.846;2022-08-01T02:56:19;8.70;;;5.15;;
62092;SDS011;59819;52.976;6.846;2022-08-01T02:58:45;9.13;;;5.35;;
62092;SDS011;59819;52.976;6.846;2022-08-01T03:01:12;8.93;;;4.78;;
62092;SDS011;59819;52.976;6.846;2022-08-01T03:03:38;9.05;;;5.45;;
62092;SDS011;59819;52.976;6.846;2022-08-01T03:06:05;8.48;;;5.07;;
62092;SDS011;59819;52.976;6.846;2022-08-01T03:08:31;10.77;;;5.07;;
62092;SDS011;59819;52.976;6.846;2022-08-01T03:10:58;7.97;;;4.72;;
62092;SDS011;59819;52.976;6.846;2022-08-01T03:13:25;9.63;;;5.43;;
62092;SDS011;59819;52.976;6.846;2022-08-01T03:15:51;13.52;;;5.65;;
62092;SDS011;59819;52.976;6.846;2022-08-01T03:18:19;9.55;;;5.30;;
62092;SDS011;59819;52.976;6.846;2022-08-01T03:20:46;8.77;;;5.13;;
62092;SDS011;59819;52.976;6.846;2022-08-01T03:23:13;12.18;;;5.43;;
62092;SDS011;59819;52.976;6.846;2022-08-01T03:25:41;8.10;;;4.85;;
62092;SDS011;59819;52.976;6.846;2022-08-01T03:28:08;9.20;;;4.25;;
62092;SDS011;59819;52.976;6.846;2022-08-01T03:30:34;7.70;;;4.10;;
62092;SDS011;59819;52.976;6.846;2022-08-01T03:33:02;7.20;;;4.18;;
62092;SDS011;59819;52.976;6.846;2022-08-01T03:35:29;6.68;;;4.32;;
62092;SDS011;59819;52.976;6.846;2022-08-01T03:37:56;7.25;;;4.65;;
62092;SDS011;59819;52.976;6.846;2022-08-01T03:40:30;9.98;;;4.43;;
62092;SDS011;59819;52.976;6.846;2022-08-01T03:43:02;11.60;;;4.72;;
62092;SDS011;59819;52.976;6.846;2022-08-01T03:47:56;7.78;;;4.32;;
62092;SDS011;59819;52.976;6.846;2022-08-01T03:50:25;9.65;;;4.53;;
62092;SDS011;59819;52.976;6.846;2022-08-01T03:52:51;11.35;;;5.13;;
62092;SDS011;59819;52.976;6.846;2022-08-01T03:55:19;10.18;;;5.28;;
62092;SDS011;59819;52.976;6.846;2022-08-01T03:57:46;10.70;;;5.53;;
62092;SDS011;59819;52.976;6.846;2022-08-01T04:00:12;15.15;;;5.82;;
62092;SDS011;59819;52.976;6.846;2022-08-01T04:02:43;13.13;;;6.00;;
62092;SDS011;59819;52.976;6.846;2022-08-01T04:05:09;13.18;;;6.30;;
62092;SDS011;59819;52.976;6.846;2022-08-01T04:07:36;14.95;;;6.40;;
62092;SDS011;59819;52.976;6.846;2022-08-01T04:10:04;13.48;;;5.88;;
62092;SDS011;59819;52.976;6.846;2022-08-01T04:12:30;11.65;;;5.75;;
62092;SDS011;59819;52.976;6.846;2022-08-01T04:14:57;14.23;;;5.63;;
62092;SDS011;59819;52.976;6.846;2022-08-01T04:17:23;11.13;;;5.22;;
62092;SDS011;59819;52.976;6.846;2022-08-01T04:19:50;15.77;;;5.25;;
62092;SDS011;59819;52.976;6.846;2022-08-01T04:22:16;12.10;;;5.30;;
62092;SDS011;59819;52.976;6.846;2022-08-01T04:24:48;12.30;;;5.57;;
62092;SDS011;59819;52.976;6.846;2022-08-01T04:27:16;11.40;;;5.40;;
62092;SDS011;59819;52.976;6.846;2022-08-01T04:29:43;10.68;;;5.10;;
62092;SDS011;59819;52.976;6.846;2022-08-01T04:32:11;15.60;;;5.63;;
62092;SDS011;59819;52.976;6.846;2022-08-01T04:34:38;12.02;;;5.63;;
62092;SDS011;59819;52.976;6.846;2022-08-01T04:37:05;10.98;;;5.45;;
62092;SDS011;59819;52.976;6.846;2022-08-01T04:39:33;12.20;;;5.88;;
62092;SDS011;59819;52.976;6.846;2022-08-01T04:42:01;13.25;;;5.90;;
62092;SDS011;59819;52.976;6.846;2022-08-01T04:44:30;12.38;;;5.72;;
62092;SDS011;59819;52.976;6.846;2022-08-01T04:46:58;11.40;;;5.80;;
62092;SDS011;59819;52.976;6.846;2022-08-01T04:49:24;10.80;;;5.60;;
62092;SDS011;59819;52.976;6.846;2022-08-01T04:51:51;12.52;;;5.95;;
62092;SDS011;59819;52.976;6.846;2022-08-01T04:54:17;14.35;;;6.03;;
62092;SDS011;59819;52.976;6.846;2022-08-01T04:56:43;13.27;;;6.05;;
62092;SDS011;59819;52.976;6.846;2022-08-01T04:59:09;11.85;;;5.60;;
62092;SDS011;59819;52.976;6.846;2022-08-01T05:02:05;17.20;;;5.75;;
62092;SDS011;59819;52.976;6.846;2022-08-01T05:04:31;12.98;;;5.40;;
62092;SDS011;59819;52.976;6.846;2022-08-01T05:06:57;14.63;;;6.03;;
62092;SDS011;59819;52.976;6.846;2022-08-01T05:09:23;14.82;;;5.97;;
62092;SDS011;59819;52.976;6.846;2022-08-01T05:11:49;11.23;;;5.22;;
62092;SDS011;59819;52.976;6.846;2022-08-01T05:14:15;14.20;;;5.40;;
62092;SDS011;59819;52.976;6.846;2022-08-01T05:16:41;13.38;;;5.15;;
62092;SDS011;59819;52.976;6.846;2022-08-01T05:19:07;10.77;;;4.85;;
62092;SDS011;59819;52.976;6.846;2022-08-01T05:21:33;13.20;;;5.45;;
62092;SDS011;59819;52.976;6.846;2022-08-01T05:24:00;15.90;;;5.40;;
62092;SDS011;59819;52.976;6.846;2022-08-01T05:26:26;16.65;;;5.55;;
62092;SDS011;59819;52.976;6.846;2022-08-01T05:28:52;12.55;;;5.15;;
62092;SDS011;59819;52.976;6.846;2022-08-01T05:31:18;15.68;;;5.10;;
62092;SDS011;59819;52.976;6.846;2022-08-01T05:33:44;14.00;;;5.22;;
62092;SDS011;59819;52.976;6.846;2022-08-01T05:36:10;17.33;;;5.95;;
62092;SDS011;59819;52.976;6.846;2022-08-01T05:38:36;17.20;;;5.30;;
62092;SDS011;59819;52.976;6.846;2022-08-01T05:41:02;18.77;;;5.25;;
62092;SDS011;59819;52.976;6.846;2022-08-01T05:43:28;17.10;;;5.40;;
62092;SDS011;59819;52.976;6.846;2022-08-01T05:45:54;15.95;;;5.18;;
62092;SDS011;59819;52.976;6.846;2022-08-01T05:48:20;12.90;;;5.00;;
62092;SDS011;59819;52.976;6.846;2022-08-01T05:50:46;17.10;;;5.32;;
62092;SDS011;59819;52.976;6.846;2022-08-01T05:53:13;18.65;;;4.85;;
62092;SDS011;59819;52.976;6.846;2022-08-01T05:55:39;16.23;;;5.05;;
62092;SDS011;59819;52.976;6.846;2022-08-01T05:58:05;22.15;;;5.97;;
62092;SDS011;59819;52.976;6.846;2022-08-01T06:00:31;14.45;;;5.07;;
62092;SDS011;59819;52.976;6.846;2022-08-01T06:02:57;15.20;;;5.50;;
62092;SDS011;59819;52.976;6.846;2022-08-01T06:05:23;20.30;;;5.38;;
62092;SDS011;59819;52.976;6.846;2022-08-01T06:07:49;16.35;;;5.65;;
62092;SDS011;59819;52.976;6.846;2022-08-01T06:10:15;18.95;;;5.20;;
62092;SDS011;59819;52.976;6.846;2022-08-01T06:12:41;16.58;;;5.07;;
62092;SDS011;59819;52.976;6.846;2022-08-01T06:15:08;12.40;;;4.93;;
62092;SDS011;59819;52.976;6.846;2022-08-01T06:17:34;14.20;;;4.97;;
62092;SDS011;59819;52.976;6.846;2022-08-01T06:20:00;18.15;;;5.50;;
62092;SDS011;59819;52.976;6.846;2022-08-01T06:22:26;17.40;;;5.22;;
62092;SDS011;59819;52.976;6.846;2022-08-01T06:24:52;16.52;;;5.32;;
62092;SDS011;59819;52.976;6.846;2022-08-01T06:27:18;18.63;;;5.50;;
62092;SDS011;59819;52.976;6.846;2022-08-01T06:29:44;15.43;;;5.60;;
62092;SDS011;59819;52.976;6.846;2022-08-01T06:32:11;16.95;;;6.00;;
62092;SDS011;59819;52.976;6.846;2022-08-01T06:34:37;17.48;;;6.05;;
62092;SDS011;59819;52.976;6.846;2022-08-01T06:37:03;21.58;;;6.05;;
62092;SDS011;59819;52.976;6.846;2022-08-01T06:39:29;22.77;;;6.40;;
62092;SDS011;59819;52.976;6.846;2022-08-01T06:41:55;19.35;;;5.63;;
62092;SDS011;59819;52.976;6.846;2022-08-01T06:44:21;19.77;;;6.18;;
62092;SDS011;59819;52.976;6.846;2022-08-01T06:46:46;16.80;;;5.68;;
62092;SDS011;59819;52.976;6.846;2022-08-01T06:49:12;16.77;;;5.43;;
62092;SDS011;59819;52.976;6.846;2022-08-01T06:51:39;18.35;;;5.70;;
62092;SDS011;59819;52.976;6.846;2022-08-01T06:54:05;18.50;;;5.63;;
62092;SDS011;59819;52.976;6.846;2022-08-01T06:56:31;14.43;;;5.18;;
62092;SDS011;59819;52.976;6.846;2022-08-01T06:58:57;18.92;;;5.30;;
62092;SDS011;59819;52.976;6.846;2022-08-01T07:01:26;16.58;;;5.22;;
62092;SDS011;59819;52.976;6.846;2022-08-01T07:03:52;17.50;;;5.18;;
62092;SDS011;59819;52.976;6.846;2022-08-01T07:06:19;16.15;;;5.53;;
62092;SDS011;59819;52.976;6.846;2022-08-01T07:08:45;13.05;;;5.30;;
62092;SDS011;59819;52.976;6.846;2022-08-01T07:11:11;14.63;;;5.10;;
62092;SDS011;59819;52.976;6.846;2022-08-01T07:13:37;15.82;;;5.20;;
62092;SDS011;59819;52.976;6.846;2022-08-01T07:16:03;20.08;;;5.57;;
62092;SDS011;59819;52.976;6.846;2022-08-01T07:18:29;14.60;;;5.20;;
62092;SDS011;59819;52.976;6.846;2022-08-01T07:20:55;15.75;;;4.90;;
62092;SDS011;59819;52.976;6.846;2022-08-01T07:23:21;14.50;;;5.00;;
62092;SDS011;59819;52.976;6.846;2022-08-01T07:25:47;18.33;;;5.43;;
62092;SDS011;59819;52.976;6.846;2022-08-01T07:28:15;15.75;;;5.25;;
62092;SDS011;59819;52.976;6.846;2022-08-01T07:30:42;15.90;;;5.05;;
62092;SDS011;59819;52.976;6.846;2022-08-01T07:33:09;14.68;;;4.82;;
62092;SDS011;59819;52.976;6.846;2022-08-01T07:35:35;14.82;;;4.88;;
62092;SDS011;59819;52.976;6.846;2022-08-01T07:38:03;17.75;;;4.70;;
62092;SDS011;59819;52.976;6.846;2022-08-01T07:40:29;14.48;;;4.65;;
62092;SDS011;59819;52.976;6.846;2022-08-01T07:42:55;12.00;;;4.57;;
62092;SDS011;59819;52.976;6.846;2022-08-01T07:45:21;16.30;;;5.13;;
62092;SDS011;59819;52.976;6.846;2022-08-01T07:47:47;17.67;;;4.82;;
62092;SDS011;59819;52.976;6.846;2022-08-01T07:50:14;17.95;;;4.80;;
62092;SDS011;59819;52.976;6.846;2022-08-01T07:52:40;18.65;;;5.20;;
62092;SDS011;59819;52.976;6.846;2022-08-01T07:55:06;18.73;;;5.55;;
62092;SDS011;59819;52.976;6.846;2022-08-01T07:57:33;16.77;;;5.13;;
62092;SDS011;59819;52.976;6.846;2022-08-01T07:59:59;13.00;;;4.57;;
62092;SDS011;59819;52.976;6.846;2022-08-01T08:02:25;13.73;;;5.03;;
62092;SDS011;59819;52.976;6.846;2022-08-01T08:04:51;13.82;;;4.53;;
62092;SDS011;59819;52.976;6.846;2022-08-01T08:07:17;14.00;;;4.47;;
62092;SDS011;59819;52.976;6.846;2022-08-01T08:09:43;14.25;;;4.40;;
62092;SDS011;59819;52.976;6.846;2022-08-01T08:12:09;15.93;;;5.00;;
62092;SDS011;59819;52.976;6.846;2022-08-01T08:14:35;16.05;;;5.10;;
62092;SDS011;59819;52.976;6.846;2022-08-01T08:17:02;12.27;;;4.40;;
62092;SDS011;59819;52.976;6.846;2022-08-01T08:19:28;14.70;;;4.43;;
62092;SDS011;59819;52.976;6.846;2022-08-01T08:21:54;13.43;;;4.25;;
62092;SDS011;59819;52.976;6.846;2022-08-01T08:24:20;15.27;;;4.13;;
62092;SDS011;59819;52.976;6.846;2022-08-01T08:26:47;12.40;;;3.97;;
62092;SDS011;59819;52.976;6.846;2022-08-01T08:29:13;13.93;;;4.32;;
62092;SDS011;59819;52.976;6.846;2022-08-01T08:31:40;12.02;;;4.35;;
62092;SDS011;59819;52.976;6.846;2022-08-01T08:34:06;15.27;;;4.38;;
62092;SDS011;59819;52.976;6.846;2022-08-01T08:36:32;11.15;;;3.88;;
62092;SDS011;59819;52.976;6.846;2022-08-01T08:38:58;13.30;;;3.92;;
62092;SDS011;59819;52.976;6.846;2022-08-01T08:41:34;18.83;;;4.70;;
62092;SDS011;59819;52.976;6.846;2022-08-01T08:44:01;15.07;;;4.43;;
62092;SDS011;59819;52.976;6.846;2022-08-01T08:46:27;10.52;;;3.97;;
62092;SDS011;59819;52.976;6.846;2022-08-01T08:48:54;11.35;;;3.92;;
62092;SDS011;59819;52.976;6.846;2022-08-01T08:51:21;17.77;;;4.05;;
62092;SDS011;59819;52.976;6.846;2022-08-01T08:53:49;13.70;;;4.07;;
62092;SDS011;59819;52.976;6.846;2022-08-01T08:56:17;9.88;;;4.03;;
62092;SDS011;59819;52.976;6.846;2022-08-01T08:58:44;10.27;;;3.65;;
62092;SDS011;59819;52.976;6.846;2022-08-01T09:01:11;11.00;;;3.50;;
62092;SDS011;59819;52.976;6.846;2022-08-01T09:03:37;11.25;;;3.83;;
62092;SDS011;59819;52.976;6.846;2022-08-01T09:06:03;11.65;;;3.92;;
62092;SDS011;59819;52.976;6.846;2022-08-01T09:08:30;10.38;;;3.55;;
62092;SDS011;59819;52.976;6.846;2022-08-01T09:10:56;12.05;;;3.70;;
62092;SDS011;59819;52.976;6.846;2022-08-01T09:13:22;12.20;;;3.60;;
62092;SDS011;59819;52.976;6.846;2022-08-01T09:15:49;9.00;;;3.15;;
62092;SDS011;59819;52.976;6.846;2022-08-01T09:18:37;8.32;;;2.97;;
62092;SDS011;59819;52.976;6.846;2022-08-01T09:21:09;14.90;;;3.10;;
62092;SDS011;59819;52.976;6.846;2022-08-01T09:23:40;10.52;;;3.35;;
62092;SDS011;59819;52.976;6.846;2022-08-01T09:26:08;9.25;;;3.20;;
62092;SDS011;59819;52.976;6.846;2022-08-01T09:28:34;10.65;;;2.92;;
62092;SDS011;59819;52.976;6.846;2022-08-01T09:31:05;9.30;;;3.30;;
62092;SDS011;59819;52.976;6.846;2022-08-01T09:33:46;10.57;;;3.72;;
62092;SDS011;59819;52.976;6.846;2022-08-01T09:36:12;10.70;;;3.20;;
62092;SDS011;59819;52.976;6.846;2022-08-01T09:38:38;11.20;;;3.20;;
62092;SDS011;59819;52.976;6.846;2022-08-01T09:41:04;10.75;;;2.80;;
62092;SDS011;59819;52.976;6.846;2022-08-01T09:43:32;7.13;;;2.70;;
62092;SDS011;59819;52.976;6.846;2022-08-01T09:45:58;7.68;;;2.83;;
62092;SDS011;59819;52.976;6.846;2022-08-01T09:48:25;10.98;;;2.67;;
62092;SDS011;59819;52.976;6.846;2022-08-01T09:50:52;9.18;;;2.80;;
62092;SDS011;59819;52.976;6.846;2022-08-01T09:53:18;9.68;;;2.63;;
62092;SDS011;59819;52.976;6.846;2022-08-01T09:55:45;9.07;;;3.08;;
62092;SDS011;59819;52.976;6.846;2022-08-01T09:58:11;7.50;;;2.58;;
62092;SDS011;59819;52.976;6.846;2022-08-01T10:00:38;8.27;;;2.80;;
62092;SDS011;59819;52.976;6.846;2022-08-01T10:03:23;9.52;;;3.20;;
62092;SDS011;59819;52.976;6.846;2022-08-01T10:05:50;8.63;;;2.80;;
62092;SDS011;59819;52.976;6.846;2022-08-01T10:08:18;7.80;;;2.70;;
62092;SDS011;59819;52.976;6.846;2022-08-01T10:13:29;10.70;;;2.90;;
62092;SDS011;59819;52.976;6.846;2022-08-01T10:15:55;9.63;;;2.72;;
62092;SDS011;59819;52.976;6.846;2022-08-01T10:18:21;9.93;;;2.75;;
62092;SDS011;59819;52.976;6.846;2022-08-01T10:20:47;9.07;;;2.60;;
62092;SDS011;59819;52.976;6.846;2022-08-01T10:23:13;6.65;;;2.65;;
62092;SDS011;59819;52.976;6.846;2022-08-01T10:25:40;8.98;;;2.40;;
62092;SDS011;59819;52.976;6.846;2022-08-01T10:28:14;8.57;;;2.72;;
62092;SDS011;59819;52.976;6.846;2022-08-01T10:30:41;10.82;;;2.60;;
62092;SDS011;59819;52.976;6.846;2022-08-01T10:33:07;11.07;;;2.80;;
62092;SDS011;59819;52.976;6.846;2022-08-01T10:35:34;6.85;;;2.70;;
62092;SDS011;59819;52.976;6.846;2022-08-01T10:38:00;7.78;;;2.47;;
62092;SDS011;59819;52.976;6.846;2022-08-01T10:40:26;7.20;;;2.50;;
62092;SDS011;59819;52.976;6.846;2022-08-01T10:42:53;11.05;;;2.83;;
62092;SDS011;59819;52.976;6.846;2022-08-01T10:45:19;5.28;;;2.00;;
62092;SDS011;59819;52.976;6.846;2022-08-01T10:47:48;7.90;;;2.42;;
62092;SDS011;59819;52.976;6.846;2022-08-01T10:53:03;7.57;;;2.28;;
62092;SDS011;59819;52.976;6.846;2022-08-01T10:55:28;5.75;;;2.00;;
62092;SDS011;59819;52.976;6.846;2022-08-01T10:57:54;6.97;;;2.08;;
62092;SDS011;59819;52.976;6.846;2022-08-01T11:00:21;8.05;;;2.40;;
62092;SDS011;59819;52.976;6.846;2022-08-01T11:03:25;7.55;;;2.03;;
62092;SDS011;59819;52.976;6.846;2022-08-01T11:05:39;6.15;;;1.90;;
62092;SDS011;59819;52.976;6.846;2022-08-01T11:08:10;6.88;;;2.25;;
62092;SDS011;59819;52.976;6.846;2022-08-01T11:10:41;6.20;;;2.10;;
62092;SDS011;59819;52.976;6.846;2022-08-01T11:13:08;4.70;;;2.25;;
62092;SDS011;59819;52.976;6.846;2022-08-01T11:15:36;7.20;;;2.08;;
62092;SDS011;59819;52.976;6.846;2022-08-01T11:18:44;7.35;;;1.90;;
62092;SDS011;59819;52.976;6.846;2022-08-01T11:20:56;8.25;;;2.25;;
62092;SDS011;59819;52.976;6.846;2022-08-01T11:23:22;5.05;;;1.90;;
62092;SDS011;59819;52.976;6.846;2022-08-01T11:30:53;5.80;;;2.10;;
62092;SDS011;59819;52.976;6.846;2022-08-01T11:34:05;5.20;;;1.98;;
62092;SDS011;59819;52.976;6.846;2022-08-01T11:38:42;4.65;;;1.80;;
62092;SDS011;59819;52.976;6.846;2022-08-01T11:49:22;4.85;;;1.73;;
62092;SDS011;59819;52.976;6.846;2022-08-01T11:51:53;5.95;;;1.80;;
62092;SDS011;59819;52.976;6.846;2022-08-01T11:54:28;5.28;;;1.90;;
62092;SDS011;59819;52.976;6.846;2022-08-01T11:56:56;5.10;;;1.65;;
62092;SDS011;59819;52.976;6.846;2022-08-01T11:59:22;5.63;;;1.88;;
62092;SDS011;59819;52.976;6.846;2022-08-01T12:01:48;5.88;;;1.60;;
62092;SDS011;59819;52.976;6.846;2022-08-01T12:04:14;5.28;;;1.40;;
62092;SDS011;59819;52.976;6.846;2022-08-01T12:06:40;5.75;;;1.60;;
62092;SDS011;59819;52.976;6.846;2022-08-01T12:09:16;4.78;;;1.60;;
62092;SDS011;59819;52.976;6.846;2022-08-01T12:11:43;6.97;;;2.03;;
62092;SDS011;59819;52.976;6.846;2022-08-01T12:14:09;6.82;;;1.90;;
62092;SDS011;59819;52.976;6.846;2022-08-01T12:16:36;5.00;;;1.90;;
62092;SDS011;59819;52.976;6.846;2022-08-01T12:19:02;6.18;;;1.65;;
62092;SDS011;59819;52.976;6.846;2022-08-01T12:21:28;3.83;;;1.55;;
62092;SDS011;59819;52.976;6.846;2022-08-01T12:24:04;5.18;;;1.88;;
62092;SDS011;59819;52.976;6.846;2022-08-01T12:26:40;6.00;;;1.88;;
62092;SDS011;59819;52.976;6.846;2022-08-01T12:29:06;5.15;;;1.80;;
62092;SDS011;59819;52.976;6.846;2022-08-01T12:31:32;4.38;;;1.75;;
62092;SDS011;59819;52.976;6.846;2022-08-01T12:34:16;3.72;;;1.60;;
62092;SDS011;59819;52.976;6.846;2022-08-01T12:36:44;4.22;;;1.50;;
62092;SDS011;59819;52.976;6.846;2022-08-01T12:39:11;3.08;;;1.40;;
62092;SDS011;59819;52.976;6.846;2022-08-01T12:41:38;6.28;;;1.52;;
62092;SDS011;59819;52.976;6.846;2022-08-01T12:44:11;7.20;;;1.77;;
62092;SDS011;59819;52.976;6.846;2022-08-01T12:46:38;5.10;;;1.70;;
62092;SDS011;59819;52.976;6.846;2022-08-01T12:49:04;5.95;;;1.77;;
62092;SDS011;59819;52.976;6.846;2022-08-01T12:51:30;5.85;;;1.58;;
62092;SDS011;59819;52.976;6.846;2022-08-01T12:53:59;5.55;;;1.92;;
62092;SDS011;59819;52.976;6.846;2022-08-01T12:56:32;5.57;;;1.50;;
62092;SDS011;59819;52.976;6.846;2022-08-01T12:58:58;4.10;;;1.48;;
62092;SDS011;59819;52.976;6.846;2022-08-01T13:01:25;3.75;;;1.42;;
62092;SDS011;59819;52.976;6.846;2022-08-01T13:04:10;6.50;;;1.75;;
62092;SDS011;59819;52.976;6.846;2022-08-01T13:06:36;4.82;;;1.85;;
62092;SDS011;59819;52.976;6.846;2022-08-01T13:09:08;4.43;;;1.60;;
62092;SDS011;59819;52.976;6.846;2022-08-01T13:11:39;5.30;;;1.40;;
62092;SDS011;59819;52.976;6.846;2022-08-01T13:14:05;4.30;;;1.40;;
62092;SDS011;59819;52.976;6.846;2022-08-01T13:16:32;5.38;;;1.38;;
62092;SDS011;59819;52.976;6.846;2022-08-01T13:18:58;5.22;;;1.30;;
62092;SDS011;59819;52.976;6.846;2022-08-01T13:21:25;4.40;;;1.23;;
62092;SDS011;59819;52.976;6.846;2022-08-01T13:24:10;4.95;;;1.42;;
62092;SDS011;59819;52.976;6.846;2022-08-01T13:29:03;8.15;;;1.35;;
62092;SDS011;59819;52.976;6.846;2022-08-01T13:31:36;5.13;;;1.30;;
62092;SDS011;59819;52.976;6.846;2022-08-01T13:34:03;4.38;;;1.50;;
62092;SDS011;59819;52.976;6.846;2022-08-01T13:36:29;5.85;;;1.23;;
62092;SDS011;59819;52.976;6.846;2022-08-01T13:38:56;6.55;;;1.50;;
62092;SDS011;59819;52.976;6.846;2022-08-01T13:41:41;5.47;;;1.40;;
62092;SDS011;59819;52.976;6.846;2022-08-01T13:44:08;4.28;;;1.77;;
62092;SDS011;59819;52.976;6.846;2022-08-01T13:46:36;6.38;;;1.60;;
62092;SDS011;59819;52.976;6.846;2022-08-01T13:49:02;5.85;;;1.40;;
62092;SDS011;59819;52.976;6.846;2022-08-01T13:51:28;3.08;;;1.23;;
62092;SDS011;59819;52.976;6.846;2022-08-01T13:53:54;5.18;;;1.95;;
62092;SDS011;59819;52.976;6.846;2022-08-01T13:56:21;2.97;;;1.15;;
62092;SDS011;59819;52.976;6.846;2022-08-01T13:58:47;4.30;;;1.40;;
62092;SDS011;59819;52.976;6.846;2022-08-01T14:01:13;3.55;;;1.25;;
62092;SDS011;59819;52.976;6.846;2022-08-01T14:03:39;6.03;;;1.33;;
62092;SDS011;59819;52.976;6.846;2022-08-01T14:06:05;3.30;;;1.35;;
62092;SDS011;59819;52.976;6.846;2022-08-01T14:08:31;4.20;;;1.30;;
62092;SDS011;59819;52.976;6.846;2022-08-01T14:10:58;5.88;;;1.10;;
62092;SDS011;59819;52.976;6.846;2022-08-01T14:13:27;4.13;;;1.45;;
62092;SDS011;59819;52.976;6.846;2022-08-01T14:15:53;4.57;;;1.17;;
62092;SDS011;59819;52.976;6.846;2022-08-01T14:18:19;3.33;;;1.38;;
62092;SDS011;59819;52.976;6.846;2022-08-01T14:20:45;3.80;;;1.30;;
62092;SDS011;59819;52.976;6.846;2022-08-01T14:23:11;5.18;;;1.73;;
62092;SDS011;59819;52.976;6.846;2022-08-01T14:25:38;6.68;;;1.45;;
62092;SDS011;59819;52.976;6.846;2022-08-01T14:28:04;3.58;;;1.27;;
62092;SDS011;59819;52.976;6.846;2022-08-01T14:30:31;3.72;;;1.30;;
62092;SDS011;59819;52.976;6.846;2022-08-01T14:32:57;4.68;;;1.55;;
62092;SDS011;59819;52.976;6.846;2022-08-01T14:35:25;3.40;;;1.30;;
62092;SDS011;59819;52.976;6.846;2022-08-01T14:37:51;5.20;;;1.42;;
62092;SDS011;59819;52.976;6.846;2022-08-01T14:40:18;2.63;;;1.35;;
62092;SDS011;59819;52.976;6.846;2022-08-01T14:42:44;4.47;;;1.48;;
62092;SDS011;59819;52.976;6.846;2022-08-01T14:45:11;3.30;;;1.30;;
62092;SDS011;59819;52.976;6.846;2022-08-01T14:47:38;4.25;;;1.30;;
62092;SDS011;59819;52.976;6.846;2022-08-01T14:50:05;3.20;;;1.33;;
62092;SDS011;59819;52.976;6.846;2022-08-01T14:52:32;5.70;;;1.50;;
62092;SDS011;59819;52.976;6.846;2022-08-01T14:54:58;6.18;;;1.52;;
62092;SDS011;59819;52.976;6.846;2022-08-01T14:57:24;4.93;;;1.50;;
62092;SDS011;59819;52.976;6.846;2022-08-01T14:59:50;4.13;;;1.23;;
62092;SDS011;59819;52.976;6.846;2022-08-01T15:02:16;5.18;;;1.60;;
62092;SDS011;59819;52.976;6.846;2022-08-01T15:04:44;4.70;;;1.38;;
62092;SDS011;59819;52.976;6.846;2022-08-01T15:07:10;4.63;;;1.40;;
62092;SDS011;59819;52.976;6.846;2022-08-01T15:09:36;6.20;;;2.00;;
62092;SDS011;59819;52.976;6.846;2022-08-01T15:12:02;6.40;;;1.42;;